Terminal Aerodrome Forecast
Issued by NWS

Home | Current Version | Previous Version | Text Only | Print | Product List | Glossary Off
Versions: 1 2 3 4 5 6 7 8 9 10 11 12 13 14 15 16 17 18 19 20 21 22 23 24 25 26 27 28 29 30 31 32 33 34 35 36 37 38
000 FTUS41 KBOX 281737 TAFBAF TAF KBAF 281737Z 2818/2918 17009KT P6SM SCT020 OVC028 FM282200 18008KT P6SM VCSH OVC020 FM290200 18005KT P6SM VCSH OVC008 FM290400 18004KT 5SM BR VCSH OVC008 FM291000 00000KT 3SM BR BKN003=

USA.gov is the U.S. government's official web portal to all federal, state and local government web resources and services.